createdAt,value
2022-09-27T00:03:41.524Z,99765.09
2022-09-27T00:08:45.770Z,99756.31
2022-09-27T00:13:48.738Z,99771.94
2022-09-27T00:18:52.294Z,99762.13
2022-09-27T00:23:57.257Z,99777.88
2022-09-27T00:29:00.738Z,99773.56
2022-09-27T00:34:04.157Z,99790.38
2022-09-27T00:39:08.478Z,99779.06
2022-09-27T00:44:44.879Z,99772.81
2022-09-27T00:49:54.632Z,99769.19
2022-09-27T00:55:02.586Z,99766.47
2022-09-27T01:00:09.869Z,99772.47
2022-09-27T01:05:15.090Z,99777.72
2022-09-27T01:10:21.612Z,99826.00
2022-09-27T01:15:31.265Z,99804.78
2022-09-27T01:21:03.211Z,99803.00
2022-09-27T01:26:17.132Z,99805.56
2022-09-27T01:31:30.129Z,99811.63
2022-09-27T01:36:43.795Z,99817.81
2022-09-27T01:41:54.485Z,99809.88
2022-09-27T01:47:19.003Z,99804.44
2022-09-27T01:52:33.921Z,99808.00
2022-09-27T01:57:41.100Z,99809.84
2022-09-27T02:02:56.238Z,99803.75
2022-09-27T02:08:18.985Z,99805.47
2022-09-27T02:13:26.144Z,99805.53
2022-09-27T02:18:49.067Z,99795.97
2022-09-27T02:23:57.906Z,99830.22
2022-09-27T02:29:10.655Z,99816.19
2022-09-27T02:34:27.542Z,99788.16
2022-09-27T02:39:31.008Z,99773.94
2022-09-27T02:44:41.821Z,99770.41
2022-09-27T02:50:08.133Z,99782.63
2022-09-27T02:55:31.726Z,99780.81
2022-09-27T03:00:50.325Z,99778.94
2022-09-27T03:06:34.345Z,99814.03
2022-09-27T03:11:37.455Z,99865.28
2022-09-27T03:16:40.507Z,99849.66
2022-09-27T03:22:20.209Z,99855.69
2022-09-27T03:27:23.557Z,99847.72
2022-09-27T03:32:26.941Z,99832.91
2022-09-27T03:38:03.686Z,99825.34
2022-09-27T03:43:06.911Z,99823.63
2022-09-27T03:48:10.141Z,99820.06
2022-09-27T03:53:14.975Z,99810.34
2022-09-27T03:58:18.057Z,99819.00
2022-09-27T04:03:21.377Z,99819.69
2022-09-27T04:08:44.666Z,99806.50
2022-09-27T04:13:48.911Z,99816.09
2022-09-27T04:18:53.567Z,99834.53
2022-09-27T04:24:22.985Z,99863.22
2022-09-27T04:29:45.966Z,99837.81
2022-09-27T04:35:27.483Z,99851.13
2022-09-27T04:40:34.802Z,99839.88
2022-09-27T04:45:38.152Z,99832.75
2022-09-27T04:50:41.365Z,99844.06
2022-09-27T04:55:50.196Z,99842.13
2022-09-27T05:00:55.880Z,99833.44
2022-09-27T05:06:17.358Z,99832.72
2022-09-27T05:11:22.455Z,99826.59
2022-09-27T05:16:43.848Z,99821.41
2022-09-27T05:22:05.545Z,99824.19
2022-09-27T05:27:13.658Z,99826.84
2022-09-27T05:32:17.422Z,99838.22
2022-09-27T05:37:23.201Z,99828.63
2022-09-27T05:42:28.095Z,99858.31
2022-09-27T05:47:31.095Z,99846.97
2022-09-27T05:52:34.018Z,99826.81
2022-09-27T05:57:38.917Z,99824.97
2022-09-27T06:02:44.394Z,99858.94
2022-09-27T06:08:16.741Z,99851.09
2022-09-27T06:13:24.938Z,99840.66
2022-09-27T06:18:28.105Z,99835.53
2022-09-27T06:23:32.795Z,99845.28
2022-09-27T06:28:42.357Z,99843.63
2022-09-27T06:33:46.119Z,99841.06
2022-09-27T06:38:50.268Z,99839.44
2022-09-27T06:43:59.773Z,99854.31
2022-09-27T06:49:09.397Z,99850.03
2022-09-27T06:54:12.587Z,99847.41
2022-09-27T06:59:34.338Z,99845.03
2022-09-27T07:04:55.917Z,99849.47
2022-09-27T07:10:14.828Z,99852.22
2022-09-27T07:15:21.685Z,99857.59
2022-09-27T07:20:25.452Z,99868.28
2022-09-27T07:25:28.596Z,99870.16
2022-09-27T07:30:33.510Z,99855.41
2022-09-27T07:35:41.514Z,99876.47
2022-09-27T07:40:44.869Z,99886.84
2022-09-27T07:45:49.399Z,99882.53
2022-09-27T07:51:11.419Z,99892.94
2022-09-27T07:56:27.122Z,99909.53
2022-09-27T08:01:34.698Z,99901.47
2022-09-27T08:06:38.114Z,99903.94
2022-09-27T08:11:41.221Z,99907.78
2022-09-27T08:16:46.554Z,99919.25
2022-09-27T08:22:10.714Z,99916.72
2022-09-27T08:27:29.336Z,99926.59
2022-09-27T08:32:37.137Z,99926.09
2022-09-27T08:37:40.310Z,99929.09
2022-09-27T08:42:50.886Z,99933.53
2022-09-27T08:48:01.248Z,99937.28
2022-09-27T08:53:11.752Z,99937.84
2022-09-27T08:58:20.598Z,99935.50
2022-09-27T09:03:28.863Z,99934.13
2022-09-27T09:08:42.946Z,99948.44
2022-09-27T09:14:09.207Z,99965.66
2022-09-27T09:19:33.623Z,99964.22
2022-09-27T09:25:12.499Z,99969.47
2022-09-27T09:30:21.854Z,99962.25
2022-09-27T09:35:35.856Z,99950.56
2022-09-27T09:40:44.970Z,99948.53
2022-09-27T09:45:52.798Z,99949.22
2022-09-27T09:51:01.278Z,99958.94
2022-09-27T09:56:08.433Z,99950.78
2022-09-27T10:01:21.453Z,99935.66
2022-09-27T10:06:29.309Z,99940.91
2022-09-27T10:11:38.297Z,99946.22
2022-09-27T10:17:07.473Z,99937.16
2022-09-27T10:22:19.790Z,99955.91
2022-09-27T10:27:25.633Z,99944.38
2022-09-27T10:32:33.150Z,99964.56
2022-09-27T10:37:56.123Z,99960.09
2022-09-27T10:43:26.323Z,99949.97
2022-09-27T10:48:36.541Z,99955.28
2022-09-27T10:53:46.781Z,99965.31
2022-09-27T10:58:57.185Z,99957.88
2022-09-27T11:04:04.761Z,99977.63
2022-09-27T11:09:20.340Z,99975.00
2022-09-27T11:14:28.921Z,99970.06
2022-09-27T11:19:44.036Z,99972.28
2022-09-27T11:25:00.947Z,99958.94
2022-09-27T11:30:10.161Z,99958.34
2022-09-27T11:35:50.737Z,99944.84
2022-09-27T11:41:12.734Z,99946.38
2022-09-27T11:46:29.878Z,99953.09
2022-09-27T11:51:55.011Z,99957.56
2022-09-27T11:57:08.883Z,99957.06
2022-09-27T12:02:36.129Z,99949.34
2022-09-27T12:07:48.486Z,99939.28
2022-09-27T12:12:57.176Z,99919.91
2022-09-27T12:18:21.091Z,99911.56
2022-09-27T12:23:32.265Z,99905.94
2022-09-27T12:29:06.641Z,99904.44
2022-09-27T12:34:20.135Z,99912.44
2022-09-27T12:39:27.307Z,99903.84
2022-09-27T12:44:45.926Z,99894.28
2022-09-27T12:50:03.388Z,99891.81
2022-09-27T12:55:37.234Z,99892.19
2022-09-27T13:00:48.160Z,99886.34
2022-09-27T13:06:20.597Z,99886.78
2022-09-27T13:11:32.020Z,99867.97
2022-09-27T13:16:45.014Z,99851.44
2022-09-27T13:21:59.728Z,99868.41
2022-09-27T13:27:43.881Z,99856.16
2022-09-27T13:33:28.331Z,99867.59
2022-09-27T13:38:37.911Z,99863.09
2022-09-27T13:44:10.324Z,99869.16
2022-09-27T13:49:31.369Z,99886.69
2022-09-27T13:55:03.782Z,99866.66
2022-09-27T14:00:13.974Z,99844.19
2022-09-27T14:05:28.526Z,99837.25
2022-09-27T14:10:33.639Z,99830.31
2022-09-27T14:15:38.231Z,99829.13
2022-09-27T14:20:46.913Z,99803.66
2022-09-27T14:26:23.843Z,99824.72
2022-09-27T14:31:27.358Z,99816.16
2022-09-27T14:37:10.857Z,99811.94
2022-09-27T14:42:33.063Z,99807.81
2022-09-27T14:47:36.177Z,99800.59
2022-09-27T14:52:40.306Z,99805.28
2022-09-27T14:57:51.811Z,99805.22
2022-09-27T15:02:59.024Z,99794.31
2022-09-27T15:08:05.890Z,99813.34
2022-09-27T15:13:16.788Z,99823.44
2022-09-27T15:18:42.018Z,99835.50
2022-09-27T15:23:46.837Z,99826.06
2022-09-27T15:28:53.444Z,99805.78
2022-09-27T15:33:58.430Z,99799.06
2022-09-27T15:39:10.305Z,99794.91
2022-09-27T15:44:39.461Z,99794.19
2022-09-27T15:49:42.584Z,99801.00
2022-09-27T15:54:45.613Z,99814.09
2022-09-27T15:59:50.764Z,99786.53
2022-09-27T16:04:53.726Z,99787.25
2022-09-27T16:09:56.670Z,99793.28
2022-09-27T16:15:01.042Z,99782.56
2022-09-27T16:20:04.326Z,99779.78
2022-09-27T16:25:07.842Z,99774.59
2022-09-27T16:30:13.970Z,99764.88
2022-09-27T16:35:18.775Z,99781.53
2022-09-27T16:40:22.630Z,99782.47
2022-09-27T16:45:33.738Z,99782.47
2022-09-27T16:50:54.324Z,99782.19
2022-09-27T16:56:00.446Z,99762.66
2022-09-27T17:01:04.848Z,99759.06
2022-09-27T17:06:08.206Z,99748.44
2022-09-27T17:11:14.861Z,99732.56
2022-09-27T17:16:19.240Z,99732.56
2022-09-27T17:21:22.309Z,99734.28
2022-09-27T17:26:26.901Z,99711.28
2022-09-27T17:31:34.717Z,99732.50
2022-09-27T17:36:40.018Z,99735.19
2022-09-27T17:41:43.802Z,99707.84
2022-09-27T17:47:08.434Z,99727.94
2022-09-27T17:52:11.314Z,99734.09
2022-09-27T17:57:14.366Z,99729.69
2022-09-27T18:02:20.260Z,99717.31
2022-09-27T18:07:23.392Z,99716.47
2022-09-27T18:12:31.950Z,99724.41
2022-09-27T18:17:37.443Z,99743.88
2022-09-27T18:22:40.682Z,99753.34
2022-09-27T18:27:44.398Z,99739.34
2022-09-27T18:32:50.610Z,99740.09
2022-09-27T18:37:54.351Z,99720.84
2022-09-27T18:42:57.729Z,99732.22
2022-09-27T18:48:02.686Z,99736.50
2022-09-27T18:53:05.830Z,99735.66
2022-09-27T18:58:10.952Z,99730.34
2022-09-27T19:03:16.918Z,99735.59
2022-09-27T19:08:19.952Z,99731.88
2022-09-27T19:13:28.295Z,99723.09
2022-09-27T19:18:34.703Z,99731.94
2022-09-27T19:23:38.153Z,99733.66
2022-09-27T19:28:43.002Z,99736.22
2022-09-27T19:33:47.561Z,99733.63
2022-09-27T19:38:52.106Z,99734.38
2022-09-27T19:43:56.011Z,99724.63
2022-09-27T19:49:04.338Z,99713.31
2022-09-27T19:54:07.385Z,99705.34
2022-09-27T19:59:10.537Z,99701.78
2022-09-27T20:04:15.334Z,99682.41
2022-09-27T20:09:18.345Z,99699.00
2022-09-27T20:14:21.456Z,99704.34
2022-09-27T20:19:26.357Z,99704.34
2022-09-27T20:24:30.717Z,99706.06
2022-09-27T20:29:34.366Z,99703.13
2022-09-27T20:34:38.758Z,99711.06
2022-09-27T20:39:47.250Z,99691.69
2022-09-27T20:44:56.463Z,99688.03
2022-09-27T20:50:03.197Z,99691.59
2022-09-27T20:55:07.134Z,99693.41
2022-09-27T21:00:11.665Z,99689.81
2022-09-27T21:05:16.161Z,99695.88
2022-09-27T21:10:19.147Z,99698.63
2022-09-27T21:15:22.190Z,99705.56
2022-09-27T21:20:26.815Z,99706.38
2022-09-27T21:25:29.919Z,99708.97
2022-09-27T21:30:33.196Z,99706.41
2022-09-27T21:35:37.580Z,99703.13
2022-09-27T21:40:43.981Z,99682.97
2022-09-27T21:45:47.398Z,99690.84
2022-09-27T21:50:51.787Z,99690.09
2022-09-27T21:55:55.481Z,99689.03
2022-09-27T22:00:58.463Z,99686.44
2022-09-27T22:06:02.800Z,99681.25
2022-09-27T22:11:06.918Z,99690.03
2022-09-27T22:16:11.939Z,99678.66
2022-09-27T22:21:19.397Z,99674.53
2022-09-27T22:26:24.614Z,99671.91
2022-09-27T22:31:30.528Z,99671.03
2022-09-27T22:36:35.872Z,99661.34
2022-09-27T22:41:39.086Z,99656.00
2022-09-27T22:46:42.532Z,99655.94
2022-09-27T22:51:46.940Z,99660.22
2022-09-27T22:56:57.275Z,99659.25
2022-09-27T23:02:03.012Z,99652.84
2022-09-27T23:07:07.721Z,99664.50
2022-09-27T23:12:10.731Z,99673.31
2022-09-27T23:17:15.931Z,99672.50
2022-09-27T23:22:20.257Z,99661.13
2022-09-27T23:27:40.891Z,99657.50
2022-09-27T23:32:45.350Z,99650.41
2022-09-27T23:37:53.202Z,99646.00
2022-09-27T23:42:56.527Z,99638.13
2022-09-27T23:48:03.211Z,99641.66
2022-09-27T23:53:07.610Z,99617.19
2022-09-27T23:58:11.418Z,99616.19
